sensor_id;sensor_type;location;lat;lon;timestamp;P1;durP1;ratioP1;P2;durP2;ratioP2
76631;SDS011;65526;48.578;-4.520;2023-01-24T00:01:24;19.02;;;9.10;;
76631;SDS011;65526;48.578;-4.520;2023-01-24T00:03:51;19.20;;;9.88;;
76631;SDS011;65526;48.578;-4.520;2023-01-24T00:06:17;11.73;;;7.70;;
76631;SDS011;65526;48.578;-4.520;2023-01-24T00:08:43;12.05;;;6.45;;
76631;SDS011;65526;48.578;-4.520;2023-01-24T00:11:10;16.88;;;9.45;;
76631;SDS011;65526;48.578;-4.520;2023-01-24T00:13:38;19.20;;;10.07;;
76631;SDS011;65526;48.578;-4.520;2023-01-24T00:18:33;15.07;;;9.50;;
76631;SDS011;65526;48.578;-4.520;2023-01-24T00:21:00;17.23;;;9.75;;
76631;SDS011;65526;48.578;-4.520;2023-01-24T00:23:28;16.77;;;10.10;;
76631;SDS011;65526;48.578;-4.520;2023-01-24T00:25:54;16.65;;;8.82;;
76631;SDS011;65526;48.578;-4.520;2023-01-24T00:28:21;18.98;;;9.18;;
76631;SDS011;65526;48.578;-4.520;2023-01-24T00:30:47;14.30;;;8.38;;
76631;SDS011;65526;48.578;-4.520;2023-01-24T00:33:13;17.80;;;9.70;;
76631;SDS011;65526;48.578;-4.520;2023-01-24T00:35:40;17.33;;;9.20;;
76631;SDS011;65526;48.578;-4.520;2023-01-24T00:38:06;18.80;;;9.13;;
76631;SDS011;65526;48.578;-4.520;2023-01-24T00:40:33;19.33;;;9.50;;
76631;SDS011;65526;48.578;-4.520;2023-01-24T00:42:59;17.42;;;9.55;;
76631;SDS011;65526;48.578;-4.520;2023-01-24T00:45:26;20.58;;;10.60;;
76631;SDS011;65526;48.578;-4.520;2023-01-24T00:47:53;19.02;;;10.52;;
76631;SDS011;65526;48.578;-4.520;2023-01-24T00:50:19;20.65;;;10.57;;
76631;SDS011;65526;48.578;-4.520;2023-01-24T00:52:46;17.75;;;10.63;;
76631;SDS011;65526;48.578;-4.520;2023-01-24T00:55:12;18.60;;;9.85;;
76631;SDS011;65526;48.578;-4.520;2023-01-24T00:57:39;20.92;;;10.05;;
76631;SDS011;65526;48.578;-4.520;2023-01-24T01:00:05;21.13;;;10.65;;
76631;SDS011;65526;48.578;-4.520;2023-01-24T01:02:34;20.83;;;11.05;;
76631;SDS011;65526;48.578;-4.520;2023-01-24T01:05:02;22.73;;;10.63;;
76631;SDS011;65526;48.578;-4.520;2023-01-24T01:07:28;18.67;;;10.43;;
76631;SDS011;65526;48.578;-4.520;2023-01-24T01:09:54;19.38;;;9.48;;
76631;SDS011;65526;48.578;-4.520;2023-01-24T01:12:21;22.50;;;10.18;;
76631;SDS011;65526;48.578;-4.520;2023-01-24T01:14:47;20.20;;;11.38;;
76631;SDS011;65526;48.578;-4.520;2023-01-24T01:17:14;19.92;;;11.20;;
76631;SDS011;65526;48.578;-4.520;2023-01-24T01:19:41;19.80;;;10.90;;
76631;SDS011;65526;48.578;-4.520;2023-01-24T01:22:07;22.33;;;11.13;;
76631;SDS011;65526;48.578;-4.520;2023-01-24T01:24:34;24.67;;;11.45;;
76631;SDS011;65526;48.578;-4.520;2023-01-24T01:27:02;24.45;;;11.70;;
76631;SDS011;65526;48.578;-4.520;2023-01-24T01:29:32;26.83;;;10.95;;
76631;SDS011;65526;48.578;-4.520;2023-01-24T01:31:59;21.42;;;11.18;;
76631;SDS011;65526;48.578;-4.520;2023-01-24T01:34:26;21.52;;;11.30;;
76631;SDS011;65526;48.578;-4.520;2023-01-24T01:36:52;22.02;;;11.38;;
76631;SDS011;65526;48.578;-4.520;2023-01-24T01:39:19;23.02;;;11.38;;
76631;SDS011;65526;48.578;-4.520;2023-01-24T01:41:45;22.58;;;11.32;;
76631;SDS011;65526;48.578;-4.520;2023-01-24T01:44:30;21.67;;;10.95;;
76631;SDS011;65526;48.578;-4.520;2023-01-24T01:47:16;20.75;;;10.85;;
76631;SDS011;65526;48.578;-4.520;2023-01-24T01:49:53;21.52;;;10.32;;
76631;SDS011;65526;48.578;-4.520;2023-01-24T01:52:29;22.10;;;11.15;;
76631;SDS011;65526;48.578;-4.520;2023-01-24T01:55:02;19.70;;;10.73;;
76631;SDS011;65526;48.578;-4.520;2023-01-24T01:57:32;20.60;;;11.05;;
76631;SDS011;65526;48.578;-4.520;2023-01-24T02:00:13;21.67;;;10.90;;
76631;SDS011;65526;48.578;-4.520;2023-01-24T02:02:44;20.52;;;11.00;;
76631;SDS011;65526;48.578;-4.520;2023-01-24T02:05:14;19.02;;;10.95;;
76631;SDS011;65526;48.578;-4.520;2023-01-24T02:08:01;22.35;;;12.15;;
76631;SDS011;65526;48.578;-4.520;2023-01-24T02:10:32;28.17;;;10.10;;
76631;SDS011;65526;48.578;-4.520;2023-01-24T02:13:18;18.65;;;10.20;;
76631;SDS011;65526;48.578;-4.520;2023-01-24T02:15:45;20.85;;;10.80;;
76631;SDS011;65526;48.578;-4.520;2023-01-24T02:18:33;24.92;;;11.45;;
76631;SDS011;65526;48.578;-4.520;2023-01-24T02:21:23;23.50;;;11.15;;
76631;SDS011;65526;48.578;-4.520;2023-01-24T02:24:12;18.15;;;10.18;;
76631;SDS011;65526;48.578;-4.520;2023-01-24T02:26:43;19.95;;;11.02;;
76631;SDS011;65526;48.578;-4.520;2023-01-24T02:29:11;21.15;;;9.90;;
76631;SDS011;65526;48.578;-4.520;2023-01-24T02:31:52;19.02;;;10.52;;
76631;SDS011;65526;48.578;-4.520;2023-01-24T02:34:27;19.95;;;9.88;;
76631;SDS011;65526;48.578;-4.520;2023-01-24T02:36:56;20.90;;;10.85;;
76631;SDS011;65526;48.578;-4.520;2023-01-24T02:39:27;19.45;;;10.30;;
76631;SDS011;65526;48.578;-4.520;2023-01-24T02:41:59;22.75;;;11.25;;
76631;SDS011;65526;48.578;-4.520;2023-01-24T02:44:32;20.23;;;10.38;;
76631;SDS011;65526;48.578;-4.520;2023-01-24T02:47:06;21.33;;;10.50;;
76631;SDS011;65526;48.578;-4.520;2023-01-24T02:49:32;22.17;;;11.02;;
76631;SDS011;65526;48.578;-4.520;2023-01-24T02:51:59;22.27;;;10.82;;
76631;SDS011;65526;48.578;-4.520;2023-01-24T02:54:44;22.20;;;9.60;;
76631;SDS011;65526;48.578;-4.520;2023-01-24T02:57:10;18.10;;;9.93;;
76631;SDS011;65526;48.578;-4.520;2023-01-24T02:59:55;18.00;;;10.18;;
76631;SDS011;65526;48.578;-4.520;2023-01-24T03:02:22;24.83;;;9.82;;
76631;SDS011;65526;48.578;-4.520;2023-01-24T03:04:49;20.38;;;10.32;;
76631;SDS011;65526;48.578;-4.520;2023-01-24T03:07:15;17.73;;;8.85;;
76631;SDS011;65526;48.578;-4.520;2023-01-24T03:09:48;18.33;;;9.88;;
76631;SDS011;65526;48.578;-4.520;2023-01-24T03:12:19;18.25;;;9.60;;
76631;SDS011;65526;48.578;-4.520;2023-01-24T03:15:04;21.92;;;9.80;;
76631;SDS011;65526;48.578;-4.520;2023-01-24T03:17:49;18.02;;;10.07;;
76631;SDS011;65526;48.578;-4.520;2023-01-24T03:20:34;19.48;;;9.93;;
76631;SDS011;65526;48.578;-4.520;2023-01-24T03:23:20;21.10;;;9.05;;
76631;SDS011;65526;48.578;-4.520;2023-01-24T03:26:06;16.80;;;9.07;;
76631;SDS011;65526;48.578;-4.520;2023-01-24T03:28:51;17.85;;;8.43;;
76631;SDS011;65526;48.578;-4.520;2023-01-24T03:31:36;20.42;;;8.82;;
76631;SDS011;65526;48.578;-4.520;2023-01-24T03:34:24;18.35;;;10.00;;
76631;SDS011;65526;48.578;-4.520;2023-01-24T03:36:58;19.40;;;10.15;;
76631;SDS011;65526;48.578;-4.520;2023-01-24T03:39:26;22.63;;;9.48;;
76631;SDS011;65526;48.578;-4.520;2023-01-24T03:42:11;19.13;;;9.85;;
76631;SDS011;65526;48.578;-4.520;2023-01-24T03:44:38;20.77;;;9.98;;
76631;SDS011;65526;48.578;-4.520;2023-01-24T03:47:05;19.10;;;9.65;;
76631;SDS011;65526;48.578;-4.520;2023-01-24T03:49:31;18.55;;;9.40;;
76631;SDS011;65526;48.578;-4.520;2023-01-24T03:52:16;18.38;;;9.52;;
76631;SDS011;65526;48.578;-4.520;2023-01-24T03:55:00;17.55;;;8.52;;
76631;SDS011;65526;48.578;-4.520;2023-01-24T03:57:28;20.08;;;9.93;;
76631;SDS011;65526;48.578;-4.520;2023-01-24T03:59:58;18.95;;;8.65;;
76631;SDS011;65526;48.578;-4.520;2023-01-24T04:02:25;20.30;;;9.45;;
76631;SDS011;65526;48.578;-4.520;2023-01-24T04:04:52;22.67;;;10.38;;
76631;SDS011;65526;48.578;-4.520;2023-01-24T04:07:37;20.10;;;9.65;;
76631;SDS011;65526;48.578;-4.520;2023-01-24T04:10:06;19.30;;;8.60;;
76631;SDS011;65526;48.578;-4.520;2023-01-24T04:12:40;17.27;;;9.52;;
76631;SDS011;65526;48.578;-4.520;2023-01-24T04:15:08;22.50;;;9.35;;
76631;SDS011;65526;48.578;-4.520;2023-01-24T04:17:39;18.23;;;9.20;;
76631;SDS011;65526;48.578;-4.520;2023-01-24T04:20:08;16.70;;;8.90;;
76631;SDS011;65526;48.578;-4.520;2023-01-24T04:22:36;19.00;;;9.15;;
76631;SDS011;65526;48.578;-4.520;2023-01-24T04:25:02;19.40;;;8.70;;
76631;SDS011;65526;48.578;-4.520;2023-01-24T04:27:32;18.85;;;8.85;;
76631;SDS011;65526;48.578;-4.520;2023-01-24T04:30:05;18.70;;;9.43;;
76631;SDS011;65526;48.578;-4.520;2023-01-24T04:32:35;18.55;;;9.10;;
76631;SDS011;65526;48.578;-4.520;2023-01-24T04:35:09;16.58;;;9.15;;
76631;SDS011;65526;48.578;-4.520;2023-01-24T04:38:00;15.30;;;8.10;;
76631;SDS011;65526;48.578;-4.520;2023-01-24T04:40:36;16.45;;;8.25;;
76631;SDS011;65526;48.578;-4.520;2023-01-24T04:43:02;20.08;;;9.70;;
76631;SDS011;65526;48.578;-4.520;2023-01-24T04:45:30;18.38;;;9.25;;
76631;SDS011;65526;48.578;-4.520;2023-01-24T04:47:57;19.48;;;9.32;;
76631;SDS011;65526;48.578;-4.520;2023-01-24T04:50:24;24.30;;;9.40;;
76631;SDS011;65526;48.578;-4.520;2023-01-24T04:52:51;18.70;;;9.02;;
76631;SDS011;65526;48.578;-4.520;2023-01-24T04:55:17;16.85;;;8.68;;
76631;SDS011;65526;48.578;-4.520;2023-01-24T04:57:44;16.20;;;8.68;;
76631;SDS011;65526;48.578;-4.520;2023-01-24T05:00:10;22.55;;;9.32;;
76631;SDS011;65526;48.578;-4.520;2023-01-24T05:02:37;19.92;;;8.73;;
76631;SDS011;65526;48.578;-4.520;2023-01-24T05:05:05;15.23;;;9.32;;
76631;SDS011;65526;48.578;-4.520;2023-01-24T05:07:32;18.08;;;9.27;;
76631;SDS011;65526;48.578;-4.520;2023-01-24T05:10:04;20.70;;;9.50;;
76631;SDS011;65526;48.578;-4.520;2023-01-24T05:12:32;15.00;;;8.82;;
76631;SDS011;65526;48.578;-4.520;2023-01-24T05:15:03;21.15;;;9.63;;
76631;SDS011;65526;48.578;-4.520;2023-01-24T05:17:31;16.80;;;8.82;;
76631;SDS011;65526;48.578;-4.520;2023-01-24T05:19:57;17.27;;;9.05;;
76631;SDS011;65526;48.578;-4.520;2023-01-24T05:22:24;18.73;;;9.20;;
76631;SDS011;65526;48.578;-4.520;2023-01-24T05:24:50;19.33;;;9.48;;
76631;SDS011;65526;48.578;-4.520;2023-01-24T05:27:17;18.92;;;9.60;;
76631;SDS011;65526;48.578;-4.520;2023-01-24T05:29:50;20.52;;;9.88;;
76631;SDS011;65526;48.578;-4.520;2023-01-24T05:32:16;20.55;;;10.93;;
76631;SDS011;65526;48.578;-4.520;2023-01-24T05:34:42;18.90;;;10.15;;
76631;SDS011;65526;48.578;-4.520;2023-01-24T05:37:09;18.95;;;10.30;;
76631;SDS011;65526;48.578;-4.520;2023-01-24T05:39:39;20.30;;;10.50;;
76631;SDS011;65526;48.578;-4.520;2023-01-24T05:42:05;19.38;;;10.57;;
76631;SDS011;65526;48.578;-4.520;2023-01-24T05:44:40;21.63;;;9.90;;
76631;SDS011;65526;48.578;-4.520;2023-01-24T05:47:06;24.85;;;10.73;;
76631;SDS011;65526;48.578;-4.520;2023-01-24T05:49:37;22.25;;;10.48;;
76631;SDS011;65526;48.578;-4.520;2023-01-24T05:52:03;20.23;;;10.80;;
76631;SDS011;65526;48.578;-4.520;2023-01-24T05:54:50;18.23;;;10.30;;
76631;SDS011;65526;48.578;-4.520;2023-01-24T06:00:23;22.20;;;10.20;;
76631;SDS011;65526;48.578;-4.520;2023-01-24T06:03:09;19.58;;;10.38;;
76631;SDS011;65526;48.578;-4.520;2023-01-24T06:05:36;20.38;;;10.13;;
76631;SDS011;65526;48.578;-4.520;2023-01-24T06:08:03;19.70;;;10.27;;
76631;SDS011;65526;48.578;-4.520;2023-01-24T06:10:29;21.65;;;10.75;;
76631;SDS011;65526;48.578;-4.520;2023-01-24T06:13:05;18.85;;;10.65;;
76631;SDS011;65526;48.578;-4.520;2023-01-24T06:15:31;20.05;;;9.63;;
76631;SDS011;65526;48.578;-4.520;2023-01-24T06:17:58;19.98;;;10.52;;
76631;SDS011;65526;48.578;-4.520;2023-01-24T06:20:25;20.20;;;10.20;;
76631;SDS011;65526;48.578;-4.520;2023-01-24T06:22:53;22.58;;;12.05;;
76631;SDS011;65526;48.578;-4.520;2023-01-24T06:25:23;22.30;;;9.93;;
76631;SDS011;65526;48.578;-4.520;2023-01-24T06:27:51;21.30;;;10.65;;
76631;SDS011;65526;48.578;-4.520;2023-01-24T06:30:18;19.08;;;11.20;;
76631;SDS011;65526;48.578;-4.520;2023-01-24T06:32:51;21.38;;;10.38;;
76631;SDS011;65526;48.578;-4.520;2023-01-24T06:38:31;19.13;;;9.68;;
76631;SDS011;65526;48.578;-4.520;2023-01-24T06:40:59;21.60;;;11.10;;
76631;SDS011;65526;48.578;-4.520;2023-01-24T06:43:27;18.88;;;10.43;;
76631;SDS011;65526;48.578;-4.520;2023-01-24T06:45:54;16.98;;;9.25;;
76631;SDS011;65526;48.578;-4.520;2023-01-24T06:48:21;16.08;;;9.35;;
76631;SDS011;65526;48.578;-4.520;2023-01-24T06:50:47;13.27;;;8.20;;
76631;SDS011;65526;48.578;-4.520;2023-01-24T06:53:14;14.48;;;7.13;;
76631;SDS011;65526;48.578;-4.520;2023-01-24T06:55:44;14.55;;;7.53;;
76631;SDS011;65526;48.578;-4.520;2023-01-24T06:58:11;14.02;;;6.85;;
76631;SDS011;65526;48.578;-4.520;2023-01-24T07:00:38;18.42;;;7.93;;
76631;SDS011;65526;48.578;-4.520;2023-01-24T07:03:05;16.88;;;7.95;;
76631;SDS011;65526;48.578;-4.520;2023-01-24T07:05:33;14.07;;;6.55;;
76631;SDS011;65526;48.578;-4.520;2023-01-24T07:08:01;13.63;;;6.53;;
76631;SDS011;65526;48.578;-4.520;2023-01-24T07:10:28;13.55;;;6.97;;
76631;SDS011;65526;48.578;-4.520;2023-01-24T07:12:55;17.10;;;7.25;;
76631;SDS011;65526;48.578;-4.520;2023-01-24T07:15:22;12.20;;;6.03;;
76631;SDS011;65526;48.578;-4.520;2023-01-24T07:17:48;15.50;;;7.05;;
76631;SDS011;65526;48.578;-4.520;2023-01-24T07:20:15;11.35;;;5.85;;
76631;SDS011;65526;48.578;-4.520;2023-01-24T07:22:42;16.08;;;6.95;;
76631;SDS011;65526;48.578;-4.520;2023-01-24T07:27:41;11.95;;;6.28;;
76631;SDS011;65526;48.578;-4.520;2023-01-24T07:30:09;15.20;;;7.18;;
76631;SDS011;65526;48.578;-4.520;2023-01-24T07:32:36;12.32;;;6.85;;
76631;SDS011;65526;48.578;-4.520;2023-01-24T07:35:03;12.35;;;6.03;;
76631;SDS011;65526;48.578;-4.520;2023-01-24T07:37:30;12.15;;;6.03;;
76631;SDS011;65526;48.578;-4.520;2023-01-24T07:39:56;11.18;;;5.80;;
76631;SDS011;65526;48.578;-4.520;2023-01-24T07:42:23;8.68;;;4.90;;
76631;SDS011;65526;48.578;-4.520;2023-01-24T07:44:50;9.82;;;4.43;;
76631;SDS011;65526;48.578;-4.520;2023-01-24T07:47:16;7.97;;;4.63;;
76631;SDS011;65526;48.578;-4.520;2023-01-24T07:49:43;10.73;;;5.75;;
76631;SDS011;65526;48.578;-4.520;2023-01-24T07:52:09;15.48;;;5.53;;
76631;SDS011;65526;48.578;-4.520;2023-01-24T07:54:36;11.23;;;5.25;;
76631;SDS011;65526;48.578;-4.520;2023-01-24T07:57:02;13.82;;;6.10;;
76631;SDS011;65526;48.578;-4.520;2023-01-24T07:59:29;15.30;;;5.80;;
76631;SDS011;65526;48.578;-4.520;2023-01-24T08:01:55;12.32;;;5.88;;
76631;SDS011;65526;48.578;-4.520;2023-01-24T08:04:21;16.40;;;6.25;;
76631;SDS011;65526;48.578;-4.520;2023-01-24T08:06:48;7.00;;;3.95;;
76631;SDS011;65526;48.578;-4.520;2023-01-24T08:09:33;8.30;;;4.28;;
76631;SDS011;65526;48.578;-4.520;2023-01-24T08:11:59;9.50;;;4.10;;
76631;SDS011;65526;48.578;-4.520;2023-01-24T08:14:25;7.57;;;3.83;;
76631;SDS011;65526;48.578;-4.520;2023-01-24T08:16:52;6.95;;;3.90;;
76631;SDS011;65526;48.578;-4.520;2023-01-24T08:19:18;8.13;;;4.72;;
76631;SDS011;65526;48.578;-4.520;2023-01-24T08:21:45;8.25;;;3.90;;
76631;SDS011;65526;48.578;-4.520;2023-01-24T08:24:11;9.93;;;4.10;;
76631;SDS011;65526;48.578;-4.520;2023-01-24T08:26:37;11.25;;;5.13;;
76631;SDS011;65526;48.578;-4.520;2023-01-24T08:29:04;6.45;;;4.88;;
76631;SDS011;65526;48.578;-4.520;2023-01-24T08:31:30;7.95;;;4.13;;
76631;SDS011;65526;48.578;-4.520;2023-01-24T08:33:57;9.82;;;4.00;;
76631;SDS011;65526;48.578;-4.520;2023-01-24T08:36:23;7.78;;;4.00;;
76631;SDS011;65526;48.578;-4.520;2023-01-24T08:38:49;10.55;;;4.43;;
76631;SDS011;65526;48.578;-4.520;2023-01-24T08:41:16;7.57;;;4.97;;
76631;SDS011;65526;48.578;-4.520;2023-01-24T08:43:43;11.50;;;5.35;;
76631;SDS011;65526;48.578;-4.520;2023-01-24T08:46:09;10.32;;;4.15;;
76631;SDS011;65526;48.578;-4.520;2023-01-24T08:48:36;5.82;;;3.88;;
76631;SDS011;65526;48.578;-4.520;2023-01-24T08:51:03;8.35;;;4.05;;
76631;SDS011;65526;48.578;-4.520;2023-01-24T08:53:30;10.45;;;4.45;;
76631;SDS011;65526;48.578;-4.520;2023-01-24T08:55:56;8.48;;;3.53;;
76631;SDS011;65526;48.578;-4.520;2023-01-24T08:58:22;6.20;;;3.78;;
76631;SDS011;65526;48.578;-4.520;2023-01-24T09:00:49;7.65;;;4.47;;
76631;SDS011;65526;48.578;-4.520;2023-01-24T09:03:16;11.15;;;4.13;;
76631;SDS011;65526;48.578;-4.520;2023-01-24T09:05:44;11.77;;;4.70;;
76631;SDS011;65526;48.578;-4.520;2023-01-24T09:08:11;7.50;;;4.20;;
76631;SDS011;65526;48.578;-4.520;2023-01-24T09:10:37;13.63;;;3.60;;
76631;SDS011;65526;48.578;-4.520;2023-01-24T09:13:04;10.45;;;3.88;;
76631;SDS011;65526;48.578;-4.520;2023-01-24T09:15:31;7.00;;;3.42;;
76631;SDS011;65526;48.578;-4.520;2023-01-24T09:18:00;5.55;;;2.33;;
76631;SDS011;65526;48.578;-4.520;2023-01-24T09:20:28;5.78;;;3.20;;
76631;SDS011;65526;48.578;-4.520;2023-01-24T09:22:54;5.25;;;2.85;;
76631;SDS011;65526;48.578;-4.520;2023-01-24T09:25:20;22.13;;;3.55;;
76631;SDS011;65526;48.578;-4.520;2023-01-24T09:27:52;5.68;;;2.28;;
76631;SDS011;65526;48.578;-4.520;2023-01-24T09:30:22;7.03;;;2.75;;
76631;SDS011;65526;48.578;-4.520;2023-01-24T09:32:49;8.75;;;4.57;;
76631;SDS011;65526;48.578;-4.520;2023-01-24T09:35:15;10.77;;;3.55;;
76631;SDS011;65526;48.578;-4.520;2023-01-24T09:37:41;6.00;;;2.30;;
76631;SDS011;65526;48.578;-4.520;2023-01-24T09:40:29;5.85;;;1.90;;
76631;SDS011;65526;48.578;-4.520;2023-01-24T09:43:18;4.40;;;2.08;;
76631;SDS011;65526;48.578;-4.520;2023-01-24T09:46:16;4.70;;;2.97;;
76631;SDS011;65526;48.578;-4.520;2023-01-24T09:48:49;7.53;;;4.20;;
76631;SDS011;65526;48.578;-4.520;2023-01-24T09:51:24;6.10;;;3.20;;
76631;SDS011;65526;48.578;-4.520;2023-01-24T09:53:54;8.73;;;4.38;;
76631;SDS011;65526;48.578;-4.520;2023-01-24T09:56:27;11.48;;;4.25;;
76631;SDS011;65526;48.578;-4.520;2023-01-24T09:59:11;8.85;;;3.40;;
76631;SDS011;65526;48.578;-4.520;2023-01-24T10:01:56;7.35;;;3.33;;
76631;SDS011;65526;48.578;-4.520;2023-01-24T10:04:30;9.18;;;3.67;;
76631;SDS011;65526;48.578;-4.520;2023-01-24T10:09:36;6.60;;;2.97;;
76631;SDS011;65526;48.578;-4.520;2023-01-24T10:12:11;5.43;;;2.67;;
76631;SDS011;65526;48.578;-4.520;2023-01-24T10:15:15;5.32;;;2.70;;
76631;SDS011;65526;48.578;-4.520;2023-01-24T10:18:11;5.57;;;3.42;;
76631;SDS011;65526;48.578;-4.520;2023-01-24T10:24:02;8.18;;;4.95;;
76631;SDS011;65526;48.578;-4.520;2023-01-24T10:26:35;10.27;;;5.28;;
76631;SDS011;65526;48.578;-4.520;2023-01-24T10:34:38;6.80;;;4.15;;
76631;SDS011;65526;48.578;-4.520;2023-01-24T10:37:18;8.80;;;4.40;;
76631;SDS011;65526;48.578;-4.520;2023-01-24T10:39:48;9.55;;;4.80;;
76631;SDS011;65526;48.578;-4.520;2023-01-24T10:42:20;11.18;;;4.80;;
76631;SDS011;65526;48.578;-4.520;2023-01-24T10:44:47;8.93;;;4.55;;
76631;SDS011;65526;48.578;-4.520;2023-01-24T10:49:50;8.23;;;4.63;;
76631;SDS011;65526;48.578;-4.520;2023-01-24T10:52:21;9.00;;;4.22;;
76631;SDS011;65526;48.578;-4.520;2023-01-24T10:54:51;13.35;;;4.72;;
76631;SDS011;65526;48.578;-4.520;2023-01-24T10:57:41;5.13;;;3.33;;
76631;SDS011;65526;48.578;-4.520;2023-01-24T11:02:40;6.93;;;4.47;;
76631;SDS011;65526;48.578;-4.520;2023-01-24T11:05:08;9.43;;;5.13;;
76631;SDS011;65526;48.578;-4.520;2023-01-24T11:07:44;12.63;;;5.45;;
76631;SDS011;65526;48.578;-4.520;2023-01-24T11:10:24;15.90;;;5.85;;
76631;SDS011;65526;48.578;-4.520;2023-01-24T11:12:53;16.17;;;6.38;;
76631;SDS011;65526;48.578;-4.520;2023-01-24T11:15:26;9.63;;;5.78;;
76631;SDS011;65526;48.578;-4.520;2023-01-24T11:18:06;13.95;;;5.45;;
76631;SDS011;65526;48.578;-4.520;2023-01-24T11:20:42;9.20;;;4.82;;
76631;SDS011;65526;48.578;-4.520;2023-01-24T11:23:17;10.25;;;5.22;;
76631;SDS011;65526;48.578;-4.520;2023-01-24T11:25:58;9.18;;;5.28;;
76631;SDS011;65526;48.578;-4.520;2023-01-24T11:30:57;8.30;;;4.70;;
76631;SDS011;65526;48.578;-4.520;2023-01-24T11:33:33;8.50;;;5.20;;
76631;SDS011;65526;48.578;-4.520;2023-01-24T11:36:25;6.13;;;5.07;;
76631;SDS011;65526;48.578;-4.520;2023-01-24T11:39:20;14.40;;;6.40;;
76631;SDS011;65526;48.578;-4.520;2023-01-24T11:42:09;8.55;;;6.13;;
76631;SDS011;65526;48.578;-4.520;2023-01-24T11:47:15;12.90;;;5.47;;
76631;SDS011;65526;48.578;-4.520;2023-01-24T11:49:52;8.70;;;4.80;;
76631;SDS011;65526;48.578;-4.520;2023-01-24T11:52:44;10.35;;;5.13;;
76631;SDS011;65526;48.578;-4.520;2023-01-24T11:55:30;10.68;;;6.18;;
76631;SDS011;65526;48.578;-4.520;2023-01-24T11:58:21;9.85;;;6.97;;
76631;SDS011;65526;48.578;-4.520;2023-01-24T12:00:55;18.08;;;6.35;;
76631;SDS011;65526;48.578;-4.520;2023-01-24T12:06:39;9.07;;;5.10;;
76631;SDS011;65526;48.578;-4.520;2023-01-24T12:09:20;10.02;;;6.35;;
76631;SDS011;65526;48.578;-4.520;2023-01-24T12:11:57;10.40;;;5.63;;
76631;SDS011;65526;48.578;-4.520;2023-01-24T12:17:53;11.85;;;6.50;;
76631;SDS011;65526;48.578;-4.520;2023-01-24T12:26:43;10.05;;;6.30;;
76631;SDS011;65526;48.578;-4.520;2023-01-24T12:29:18;10.30;;;6.15;;
76631;SDS011;65526;48.578;-4.520;2023-01-24T12:32:09;8.70;;;6.63;;
76631;SDS011;65526;48.578;-4.520;2023-01-24T12:41:15;12.73;;;6.95;;
76631;SDS011;65526;48.578;-4.520;2023-01-24T12:52:22;11.38;;;7.30;;
76631;SDS011;65526;48.578;-4.520;2023-01-24T12:57:39;9.07;;;5.40;;
76631;SDS011;65526;48.578;-4.520;2023-01-24T13:00:17;9.52;;;5.13;;
76631;SDS011;65526;48.578;-4.520;2023-01-24T13:11:05;10.65;;;6.28;;
76631;SDS011;65526;48.578;-4.520;2023-01-24T13:13:44;9.40;;;5.93;;
76631;SDS011;65526;48.578;-4.520;2023-01-24T13:19:53;9.18;;;4.88;;
76631;SDS011;65526;48.578;-4.520;2023-01-24T13:25:28;8.30;;;5.50;;
76631;SDS011;65526;48.578;-4.520;2023-01-24T13:33:52;9.73;;;6.28;;
76631;SDS011;65526;48.578;-4.520;2023-01-24T13:36:23;9.95;;;5.50;;
76631;SDS011;65526;48.578;-4.520;2023-01-24T13:38:56;11.52;;;6.00;;
76631;SDS011;65526;48.578;-4.520;2023-01-24T13:55:02;7.57;;;4.90;;
76631;SDS011;65526;48.578;-4.520;2023-01-24T13:57:36;9.70;;;5.05;;
76631;SDS011;65526;48.578;-4.520;2023-01-24T14:07:58;9.30;;;4.75;;
76631;SDS011;65526;48.578;-4.520;2023-01-24T14:10:35;11.75;;;5.60;;
76631;SDS011;65526;48.578;-4.520;2023-01-24T14:13:05;9.18;;;4.45;;
76631;SDS011;65526;48.578;-4.520;2023-01-24T14:15:51;10.95;;;6.13;;
76631;SDS011;65526;48.578;-4.520;2023-01-24T14:21:15;7.35;;;3.10;;
76631;SDS011;65526;48.578;-4.520;2023-01-24T14:23:44;5.63;;;3.65;;
76631;SDS011;65526;48.578;-4.520;2023-01-24T14:26:15;5.38;;;3.70;;
76631;SDS011;65526;48.578;-4.520;2023-01-24T14:28:51;11.45;;;4.00;;
76631;SDS011;65526;48.578;-4.520;2023-01-24T14:31:28;6.80;;;5.32;;
76631;SDS011;65526;48.578;-4.520;2023-01-24T14:34:13;11.07;;;5.10;;
76631;SDS011;65526;48.578;-4.520;2023-01-24T14:37:08;7.07;;;4.05;;
76631;SDS011;65526;48.578;-4.520;2023-01-24T14:39:37;7.90;;;4.65;;
76631;SDS011;65526;48.578;-4.520;2023-01-24T14:42:05;8.93;;;4.53;;
76631;SDS011;65526;48.578;-4.520;2023-01-24T14:45:04;8.65;;;3.65;;
76631;SDS011;65526;48.578;-4.520;2023-01-24T14:47:29;5.68;;;3.53;;
76631;SDS011;65526;48.578;-4.520;2023-01-24T14:49:58;6.97;;;4.28;;
76631;SDS011;65526;48.578;-4.520;2023-01-24T14:52:31;11.13;;;4.95;;
76631;SDS011;65526;48.578;-4.520;2023-01-24T14:55:12;13.68;;;5.35;;
76631;SDS011;65526;48.578;-4.520;2023-01-24T14:57:46;12.02;;;5.72;;
76631;SDS011;65526;48.578;-4.520;2023-01-24T15:00:16;6.82;;;4.72;;
76631;SDS011;65526;48.578;-4.520;2023-01-24T15:02:55;10.32;;;3.92;;
76631;SDS011;65526;48.578;-4.520;2023-01-24T15:05:26;6.53;;;4.35;;
76631;SDS011;65526;48.578;-4.520;2023-01-24T15:07:56;8.10;;;4.70;;
76631;SDS011;65526;48.578;-4.520;2023-01-24T15:10:41;8.60;;;3.90;;
76631;SDS011;65526;48.578;-4.520;2023-01-24T15:13:19;7.13;;;3.97;;
76631;SDS011;65526;48.578;-4.520;2023-01-24T15:15:50;11.80;;;3.90;;
76631;SDS011;65526;48.578;-4.520;2023-01-24T15:18:29;4.68;;;3.20;;
76631;SDS011;65526;48.578;-4.520;2023-01-24T15:20:58;9.00;;;4.00;;
76631;SDS011;65526;48.578;-4.520;2023-01-24T15:23:26;12.98;;;5.20;;
76631;SDS011;65526;48.578;-4.520;2023-01-24T15:25:56;7.43;;;4.63;;
76631;SDS011;65526;48.578;-4.520;2023-01-24T15:30:52;11.02;;;4.60;;
76631;SDS011;65526;48.578;-4.520;2023-01-24T15:33:20;13.68;;;5.28;;
76631;SDS011;65526;48.578;-4.520;2023-01-24T15:35:50;7.72;;;4.55;;
76631;SDS011;65526;48.578;-4.520;2023-01-24T15:51:57;11.40;;;4.60;;
76631;SDS011;65526;48.578;-4.520;2023-01-24T15:54:40;12.95;;;5.82;;
76631;SDS011;65526;48.578;-4.520;2023-01-24T15:57:19;13.48;;;4.78;;
76631;SDS011;65526;48.578;-4.520;2023-01-24T15:59:49;11.05;;;4.15;;
76631;SDS011;65526;48.578;-4.520;2023-01-24T16:02:18;7.55;;;4.13;;
76631;SDS011;65526;48.578;-4.520;2023-01-24T16:04:44;14.23;;;5.50;;
76631;SDS011;65526;48.578;-4.520;2023-01-24T16:07:11;11.10;;;5.35;;
76631;SDS011;65526;48.578;-4.520;2023-01-24T16:09:38;6.75;;;4.45;;
76631;SDS011;65526;48.578;-4.520;2023-01-24T16:12:04;6.95;;;4.03;;
76631;SDS011;65526;48.578;-4.520;2023-01-24T16:14:31;7.22;;;3.78;;
76631;SDS011;65526;48.578;-4.520;2023-01-24T16:16:58;7.95;;;4.22;;
76631;SDS011;65526;48.578;-4.520;2023-01-24T16:19:28;7.03;;;4.35;;
76631;SDS011;65526;48.578;-4.520;2023-01-24T16:21:55;9.02;;;4.10;;
76631;SDS011;65526;48.578;-4.520;2023-01-24T16:24:21;7.50;;;3.58;;
76631;SDS011;65526;48.578;-4.520;2023-01-24T16:26:48;8.30;;;3.58;;
76631;SDS011;65526;48.578;-4.520;2023-01-24T16:29:18;7.82;;;4.15;;
76631;SDS011;65526;48.578;-4.520;2023-01-24T16:31:47;6.70;;;3.95;;
76631;SDS011;65526;48.578;-4.520;2023-01-24T16:34:13;8.02;;;4.63;;
76631;SDS011;65526;48.578;-4.520;2023-01-24T16:36:44;9.77;;;4.13;;
76631;SDS011;65526;48.578;-4.520;2023-01-24T16:39:15;9.60;;;4.47;;
76631;SDS011;65526;48.578;-4.520;2023-01-24T16:41:44;10.50;;;4.38;;
76631;SDS011;65526;48.578;-4.520;2023-01-24T16:44:11;8.82;;;4.55;;
76631;SDS011;65526;48.578;-4.520;2023-01-24T16:46:38;10.38;;;5.40;;
76631;SDS011;65526;48.578;-4.520;2023-01-24T16:49:05;7.82;;;4.20;;
76631;SDS011;65526;48.578;-4.520;2023-01-24T16:51:32;8.05;;;4.40;;
76631;SDS011;65526;48.578;-4.520;2023-01-24T16:53:58;9.18;;;4.68;;